createdAt,value
2022-10-09T00:04:35.526Z,9.4
2022-10-09T00:09:35.539Z,9.3
2022-10-09T00:14:35.547Z,9.5
2022-10-09T00:19:35.556Z,9.5
2022-10-09T00:24:35.543Z,9.5
2022-10-09T00:29:35.545Z,9.5
2022-10-09T00:34:35.552Z,9.2
2022-10-09T00:39:35.541Z,9.5
2022-10-09T00:44:35.590Z,9.3
2022-10-09T00:49:35.560Z,9.4
2022-10-09T00:54:35.598Z,9.3
2022-10-09T00:59:35.577Z,9.4
2022-10-09T01:04:35.574Z,9.2
2022-10-09T01:09:35.562Z,9.2
2022-10-09T01:14:35.579Z,9.3
2022-10-09T01:19:35.589Z,9.2
2022-10-09T01:24:35.575Z,9.2
2022-10-09T01:29:35.586Z,9.3
2022-10-09T01:34:35.597Z,9.2
2022-10-09T01:39:35.589Z,9.2
2022-10-09T01:44:35.591Z,9.0
2022-10-09T01:49:35.589Z,9.0
2022-10-09T01:54:35.599Z,9.1
2022-10-09T01:59:35.594Z,9.0
2022-10-09T02:04:35.587Z,9.0
2022-10-09T02:09:35.595Z,8.9
2022-10-09T02:14:35.613Z,8.9
2022-10-09T02:19:35.595Z,8.9
2022-10-09T02:24:35.649Z,8.8
2022-10-09T02:29:35.604Z,8.7
2022-10-09T02:34:35.610Z,8.6
2022-10-09T02:39:35.618Z,8.7
2022-10-09T02:44:35.620Z,8.6
2022-10-09T02:49:35.610Z,8.5
2022-10-09T02:54:35.629Z,8.6
2022-10-09T02:59:35.614Z,8.5
2022-10-09T03:04:35.643Z,8.5
2022-10-09T03:09:35.631Z,8.5
2022-10-09T03:14:37.149Z,8.5
2022-10-09T03:19:35.612Z,8.3
2022-10-09T03:24:35.630Z,8.4
2022-10-09T03:29:35.623Z,8.5
2022-10-09T03:34:35.658Z,8.5
2022-10-09T03:39:35.627Z,8.0
2022-10-09T03:44:35.630Z,8.3
2022-10-09T03:49:35.620Z,8.4
2022-10-09T03:54:35.641Z,8.4
2022-10-09T03:59:35.646Z,8.4
2022-10-09T04:04:35.644Z,8.4
2022-10-09T04:09:35.630Z,8.2
2022-10-09T04:14:35.659Z,7.8
2022-10-09T04:19:35.651Z,7.7
2022-10-09T04:24:35.674Z,7.8
2022-10-09T04:29:35.659Z,8.0
2022-10-09T04:34:35.678Z,8.0
2022-10-09T04:39:35.675Z,8.0
2022-10-09T04:44:35.665Z,7.8
2022-10-09T04:49:35.664Z,7.7
2022-10-09T04:54:35.665Z,7.9
2022-10-09T04:59:35.687Z,7.8
2022-10-09T05:04:35.690Z,7.8
2022-10-09T05:09:35.672Z,8.0
2022-10-09T05:14:35.687Z,8.2
2022-10-09T05:19:35.696Z,8.1
2022-10-09T05:24:35.698Z,7.8
2022-10-09T05:29:35.704Z,7.8
2022-10-09T05:34:35.697Z,8.0
2022-10-09T05:39:35.711Z,8.1
2022-10-09T05:44:35.703Z,8.0
2022-10-09T05:49:35.748Z,8.2
2022-10-09T05:54:35.715Z,7.8
2022-10-09T05:59:35.722Z,7.9
2022-10-09T06:04:35.738Z,7.7
2022-10-09T06:09:35.740Z,7.8
2022-10-09T06:14:35.746Z,7.5
2022-10-09T06:19:35.761Z,7.5
2022-10-09T06:24:35.749Z,7.7
2022-10-09T06:29:35.745Z,7.8
2022-10-09T06:34:35.747Z,7.7
2022-10-09T06:39:35.743Z,7.6
2022-10-09T06:44:35.752Z,7.7
2022-10-09T06:49:35.763Z,7.5
2022-10-09T06:54:35.757Z,7.7
2022-10-09T06:59:35.772Z,7.7
2022-10-09T07:04:35.760Z,7.5
2022-10-09T07:09:35.768Z,8.1
2022-10-09T07:14:35.779Z,8.3
2022-10-09T07:19:35.805Z,8.2
2022-10-09T07:24:35.793Z,8.2
2022-10-09T07:29:35.788Z,8.4
2022-10-09T07:34:35.794Z,8.8
2022-10-09T07:39:35.796Z,10.2
2022-10-09T07:44:35.800Z,11.9
2022-10-09T07:49:35.794Z,12.3
2022-10-09T07:54:35.822Z,12.4
2022-10-09T07:59:35.830Z,12.6
2022-10-09T08:04:35.819Z,12.4
2022-10-09T08:09:35.824Z,13.2
2022-10-09T08:14:35.817Z,13.3
2022-10-09T08:19:35.814Z,13.7
2022-10-09T08:24:35.819Z,13.8
2022-10-09T08:29:39.930Z,14.5
2022-10-09T08:34:35.821Z,13.5
2022-10-09T08:39:35.820Z,13.1
2022-10-09T08:44:35.827Z,13.5
2022-10-09T08:49:35.855Z,13.7
2022-10-09T08:54:35.836Z,13.9
2022-10-09T08:59:35.825Z,14.5
2022-10-09T09:04:35.840Z,13.9
2022-10-09T09:09:35.899Z,14.4
2022-10-09T09:14:35.847Z,13.7
2022-10-09T09:19:35.859Z,14.0
2022-10-09T09:24:35.887Z,14.1
2022-10-09T09:29:35.870Z,13.5
2022-10-09T09:34:35.873Z,14.4
2022-10-09T09:40:24.289Z,14.7
2022-10-09T09:44:35.880Z,14.7
2022-10-09T09:49:35.903Z,14.4
2022-10-09T09:54:35.900Z,14.3
2022-10-09T09:59:35.886Z,14.9
2022-10-09T10:04:38.786Z,14.0
2022-10-09T10:09:35.901Z,15.0
2022-10-09T10:14:35.910Z,14.4
2022-10-09T10:19:35.907Z,14.2
2022-10-09T10:24:35.912Z,14.4
2022-10-09T10:29:35.902Z,14.4
2022-10-09T10:34:35.907Z,14.0
2022-10-09T10:39:35.962Z,14.7
2022-10-09T10:44:35.903Z,14.2
2022-10-09T10:49:35.923Z,14.2
2022-10-09T10:54:35.924Z,13.9
2022-10-09T10:59:35.893Z,14.2
2022-10-09T11:04:35.890Z,14.9
2022-10-09T11:09:35.928Z,14.5
2022-10-09T11:14:35.933Z,15.1
2022-10-09T11:19:35.989Z,15.2
2022-10-09T11:24:35.958Z,15.1
2022-10-09T11:29:36.002Z,14.7
2022-10-09T11:34:35.939Z,14.6
2022-10-09T11:39:35.940Z,14.3
2022-10-09T11:44:35.948Z,14.0
2022-10-09T11:49:36.003Z,14.2
2022-10-09T11:54:35.932Z,14.5
2022-10-09T11:59:35.971Z,14.5
2022-10-09T12:04:53.972Z,14.7
2022-10-09T12:09:35.939Z,14.5
2022-10-09T12:14:35.956Z,14.6
2022-10-09T12:19:35.944Z,14.4
2022-10-09T12:24:35.969Z,14.6
2022-10-09T12:29:35.948Z,14.6
2022-10-09T12:34:35.981Z,14.5
2022-10-09T12:39:35.946Z,14.6
2022-10-09T12:44:35.972Z,14.7
2022-10-09T12:49:35.944Z,14.7
2022-10-09T12:54:35.952Z,15.1
2022-10-09T12:59:35.973Z,15.0
2022-10-09T13:04:35.955Z,15.0
2022-10-09T13:09:35.965Z,15.0
2022-10-09T13:14:35.972Z,15.1
2022-10-09T13:19:35.980Z,15.4
2022-10-09T13:24:35.972Z,15.3
2022-10-09T13:29:35.970Z,15.3
2022-10-09T13:34:35.986Z,15.0
2022-10-09T13:39:35.969Z,15.0
2022-10-09T13:44:35.975Z,15.0
2022-10-09T13:49:35.959Z,14.8
2022-10-09T13:54:35.992Z,14.9
2022-10-09T13:59:35.966Z,15.0
2022-10-09T14:04:35.974Z,15.4
2022-10-09T14:09:35.987Z,16.0
2022-10-09T14:14:35.981Z,15.7
2022-10-09T14:19:36.000Z,15.8
2022-10-09T14:24:35.986Z,15.4
2022-10-09T14:29:35.990Z,15.2
2022-10-09T14:34:35.995Z,15.4
2022-10-09T14:39:36.006Z,15.5
2022-10-09T14:44:35.995Z,15.5
2022-10-09T14:49:36.010Z,15.6
2022-10-09T14:54:35.994Z,15.5
2022-10-09T14:59:36.003Z,15.5
2022-10-09T15:04:36.010Z,15.5
2022-10-09T15:09:36.018Z,15.5
2022-10-09T15:14:36.009Z,15.6
2022-10-09T15:19:36.009Z,15.4
2022-10-09T15:24:36.017Z,15.4
2022-10-09T15:29:36.017Z,15.2
2022-10-09T15:34:40.647Z,15.1
2022-10-09T15:39:36.003Z,15.0
2022-10-09T15:44:36.018Z,15.0
2022-10-09T15:49:36.028Z,14.8
2022-10-09T15:54:36.119Z,14.7
2022-10-09T15:59:36.014Z,14.5
2022-10-09T16:04:36.031Z,14.4
2022-10-09T16:09:36.035Z,14.4
2022-10-09T16:14:36.027Z,14.3
2022-10-09T16:19:36.018Z,14.3
2022-10-09T16:24:36.058Z,14.2
2022-10-09T16:29:36.033Z,14.2
2022-10-09T16:34:36.036Z,14.0
2022-10-09T16:39:36.046Z,14.0
2022-10-09T16:44:36.049Z,13.9
2022-10-09T16:49:36.018Z,13.9
2022-10-09T16:54:36.045Z,13.9
2022-10-09T16:59:36.032Z,13.8
2022-10-09T17:04:36.038Z,13.7
2022-10-09T17:09:36.042Z,13.7
2022-10-09T17:14:36.046Z,13.7
2022-10-09T17:19:36.027Z,13.6
2022-10-09T17:24:36.050Z,13.5
2022-10-09T17:29:36.063Z,13.4
2022-10-09T17:34:36.045Z,13.4
2022-10-09T17:39:36.042Z,13.3
2022-10-09T17:44:36.046Z,13.3
2022-10-09T17:49:36.144Z,13.2
2022-10-09T17:54:36.068Z,13.2
2022-10-09T17:59:36.042Z,13.2
2022-10-09T18:04:36.040Z,13.2
2022-10-09T18:09:36.051Z,13.2
2022-10-09T18:14:36.042Z,13.1
2022-10-09T18:19:36.060Z,13.0
2022-10-09T18:24:36.043Z,13.0
2022-10-09T18:29:36.048Z,13.0
2022-10-09T18:34:39.200Z,12.9
2022-10-09T18:39:36.044Z,12.9
2022-10-09T18:44:36.064Z,12.8
2022-10-09T18:49:36.021Z,12.7
2022-10-09T18:54:36.047Z,12.6
2022-10-09T18:59:36.068Z,12.6
2022-10-09T19:04:36.056Z,12.5
2022-10-09T19:09:36.040Z,12.6
2022-10-09T19:14:36.053Z,12.5
2022-10-09T19:19:36.047Z,12.5
2022-10-09T19:24:36.053Z,12.5
2022-10-09T19:29:36.067Z,12.5
2022-10-09T19:34:36.056Z,12.4
2022-10-09T19:39:36.050Z,12.4
2022-10-09T19:44:36.063Z,12.3
2022-10-09T19:49:36.058Z,12.2
2022-10-09T19:54:36.058Z,12.2
2022-10-09T19:59:36.054Z,12.1
2022-10-09T20:04:36.061Z,12.0
2022-10-09T20:09:36.070Z,12.0
2022-10-09T20:14:36.066Z,12.0
2022-10-09T20:19:36.054Z,12.0
2022-10-09T20:24:36.067Z,12.0
2022-10-09T20:29:36.059Z,12.0
2022-10-09T20:34:36.057Z,12.0
2022-10-09T20:39:36.053Z,11.9
2022-10-09T20:44:36.058Z,11.9
2022-10-09T20:49:36.064Z,11.9
2022-10-09T20:54:36.050Z,11.8
2022-10-09T20:59:36.064Z,11.8
2022-10-09T21:04:36.065Z,11.8
2022-10-09T21:09:36.063Z,11.7
2022-10-09T21:14:36.096Z,11.7
2022-10-09T21:19:36.058Z,11.7
2022-10-09T21:24:36.074Z,11.6
2022-10-09T21:29:36.075Z,11.6
2022-10-09T21:34:36.067Z,11.5
2022-10-09T21:39:36.065Z,11.5
2022-10-09T21:44:36.075Z,11.5
2022-10-09T21:49:36.075Z,11.4
2022-10-09T21:54:36.075Z,11.4
2022-10-09T21:59:36.054Z,11.4
2022-10-09T22:04:36.075Z,11.4
2022-10-09T22:09:36.080Z,11.4
2022-10-09T22:14:36.063Z,11.4
2022-10-09T22:19:36.075Z,11.4
2022-10-09T22:24:36.084Z,11.4
2022-10-09T22:29:36.085Z,11.3
2022-10-09T22:34:36.073Z,11.3
2022-10-09T22:39:36.094Z,11.2
2022-10-09T22:44:36.092Z,11.2
2022-10-09T22:49:36.101Z,11.2
2022-10-09T22:54:36.075Z,11.1
2022-10-09T22:59:36.086Z,11.1
2022-10-09T23:04:36.093Z,11.1
2022-10-09T23:09:36.082Z,11.1
2022-10-09T23:14:36.095Z,11.0
2022-10-09T23:19:36.089Z,11.0
2022-10-09T23:24:36.120Z,11.0
2022-10-09T23:29:36.105Z,11.0
2022-10-09T23:34:36.109Z,10.9
2022-10-09T23:39:36.091Z,11.0
2022-10-09T23:44:36.091Z,10.9
2022-10-09T23:49:36.081Z,10.9
2022-10-09T23:54:36.092Z,10.9
2022-10-09T23:59:36.098Z,10.9
